sensor_id;sensor_type;location;lat;lon;timestamp;temperature;humidity
19580;DHT22;9936;51.040;13.918;2023-03-29T00:00:35;3.80;99.90
19580;DHT22;9936;51.040;13.918;2023-03-29T00:04:21;3.80;99.90
19580;DHT22;9936;51.040;13.918;2023-03-29T00:08:07;3.90;99.90
19580;DHT22;9936;51.040;13.918;2023-03-29T00:11:53;3.80;99.90
19580;DHT22;9936;51.040;13.918;2023-03-29T00:15:40;3.70;99.90
19580;DHT22;9936;51.040;13.918;2023-03-29T00:19:26;3.80;99.90
19580;DHT22;9936;51.040;13.918;2023-03-29T00:23:13;3.80;99.90
19580;DHT22;9936;51.040;13.918;2023-03-29T00:26:58;3.80;99.90
19580;DHT22;9936;51.040;13.918;2023-03-29T00:30:44;3.70;99.90
19580;DHT22;9936;51.040;13.918;2023-03-29T00:34:30;3.70;99.90
19580;DHT22;9936;51.040;13.918;2023-03-29T00:38:16;3.70;99.90
19580;DHT22;9936;51.040;13.918;2023-03-29T00:42:02;3.70;99.90
19580;DHT22;9936;51.040;13.918;2023-03-29T00:45:47;3.70;99.90
19580;DHT22;9936;51.040;13.918;2023-03-29T00:49:33;3.70;99.90
19580;DHT22;9936;51.040;13.918;2023-03-29T00:53:27;3.60;99.90
19580;DHT22;9936;51.040;13.918;2023-03-29T00:57:17;3.60;99.90
19580;DHT22;9936;51.040;13.918;2023-03-29T01:01:11;3.60;99.90
19580;DHT22;9936;51.040;13.918;2023-03-29T01:05:07;3.70;99.90
19580;DHT22;9936;51.040;13.918;2023-03-29T01:08:57;3.60;99.90
19580;DHT22;9936;51.040;13.918;2023-03-29T01:12:50;3.60;99.90
19580;DHT22;9936;51.040;13.918;2023-03-29T01:16:37;3.50;99.90
19580;DHT22;9936;51.040;13.918;2023-03-29T01:24:41;3.50;99.90
19580;DHT22;9936;51.040;13.918;2023-03-29T01:28:32;3.50;99.90
19580;DHT22;9936;51.040;13.918;2023-03-29T01:32:32;3.50;99.90
19580;DHT22;9936;51.040;13.918;2023-03-29T01:36:27;3.40;99.90
19580;DHT22;9936;51.040;13.918;2023-03-29T01:40:13;3.40;99.90
19580;DHT22;9936;51.040;13.918;2023-03-29T01:44:12;3.40;99.90
19580;DHT22;9936;51.040;13.918;2023-03-29T01:48:15;3.40;99.90
19580;DHT22;9936;51.040;13.918;2023-03-29T01:56:26;3.30;99.90
19580;DHT22;9936;51.040;13.918;2023-03-29T02:00:16;3.40;99.90
19580;DHT22;9936;51.040;13.918;2023-03-29T02:04:07;3.30;99.90
19580;DHT22;9936;51.040;13.918;2023-03-29T02:07:55;3.20;99.90
19580;DHT22;9936;51.040;13.918;2023-03-29T02:11:43;3.20;99.90
19580;DHT22;9936;51.040;13.918;2023-03-29T02:15:29;3.20;99.90
19580;DHT22;9936;51.040;13.918;2023-03-29T02:19:14;3.20;99.90
19580;DHT22;9936;51.040;13.918;2023-03-29T02:23:07;3.20;99.90
19580;DHT22;9936;51.040;13.918;2023-03-29T02:26:54;3.20;99.90
19580;DHT22;9936;51.040;13.918;2023-03-29T02:30:50;3.10;99.90
19580;DHT22;9936;51.040;13.918;2023-03-29T02:34:47;3.30;99.90
19580;DHT22;9936;51.040;13.918;2023-03-29T02:38:36;3.10;99.90
19580;DHT22;9936;51.040;13.918;2023-03-29T02:42:24;3.10;99.90
19580;DHT22;9936;51.040;13.918;2023-03-29T02:46:11;3.10;99.90
19580;DHT22;9936;51.040;13.918;2023-03-29T02:49:58;3.10;99.90
19580;DHT22;9936;51.040;13.918;2023-03-29T02:53:48;3.00;99.90
19580;DHT22;9936;51.040;13.918;2023-03-29T02:57:36;3.10;99.90
19580;DHT22;9936;51.040;13.918;2023-03-29T03:01:24;3.10;99.90
19580;DHT22;9936;51.040;13.918;2023-03-29T03:05:10;3.00;99.90
19580;DHT22;9936;51.040;13.918;2023-03-29T03:08:56;3.00;99.90
19580;DHT22;9936;51.040;13.918;2023-03-29T03:12:41;3.00;99.90
19580;DHT22;9936;51.040;13.918;2023-03-29T03:16:27;3.00;99.90
19580;DHT22;9936;51.040;13.918;2023-03-29T03:20:13;3.00;99.90
19580;DHT22;9936;51.040;13.918;2023-03-29T03:23:59;3.00;99.90
19580;DHT22;9936;51.040;13.918;2023-03-29T03:27:44;3.00;99.90
19580;DHT22;9936;51.040;13.918;2023-03-29T03:31:30;2.90;99.90
19580;DHT22;9936;51.040;13.918;2023-03-29T03:35:17;2.90;99.90
19580;DHT22;9936;51.040;13.918;2023-03-29T03:39:03;2.90;99.90
19580;DHT22;9936;51.040;13.918;2023-03-29T03:42:51;3.00;99.90
19580;DHT22;9936;51.040;13.918;2023-03-29T03:46:36;2.90;99.90
19580;DHT22;9936;51.040;13.918;2023-03-29T03:50:22;2.90;99.90
19580;DHT22;9936;51.040;13.918;2023-03-29T03:54:08;2.90;99.90
19580;DHT22;9936;51.040;13.918;2023-03-29T03:57:54;2.90;99.90
19580;DHT22;9936;51.040;13.918;2023-03-29T04:01:40;2.90;99.90
19580;DHT22;9936;51.040;13.918;2023-03-29T04:05:29;2.90;99.90
19580;DHT22;9936;51.040;13.918;2023-03-29T04:09:16;2.90;99.90
19580;DHT22;9936;51.040;13.918;2023-03-29T04:13:02;2.80;99.90
19580;DHT22;9936;51.040;13.918;2023-03-29T04:16:49;2.80;99.90
19580;DHT22;9936;51.040;13.918;2023-03-29T04:20:35;2.80;99.90
19580;DHT22;9936;51.040;13.918;2023-03-29T04:24:22;2.80;99.90
19580;DHT22;9936;51.040;13.918;2023-03-29T04:28:10;2.80;99.90
19580;DHT22;9936;51.040;13.918;2023-03-29T04:31:56;2.80;99.90
19580;DHT22;9936;51.040;13.918;2023-03-29T04:35:41;2.70;99.90
19580;DHT22;9936;51.040;13.918;2023-03-29T04:39:27;2.60;99.90
19580;DHT22;9936;51.040;13.918;2023-03-29T04:43:18;2.70;99.90
19580;DHT22;9936;51.040;13.918;2023-03-29T04:47:04;2.60;99.90
19580;DHT22;9936;51.040;13.918;2023-03-29T04:50:50;2.60;99.90
19580;DHT22;9936;51.040;13.918;2023-03-29T04:54:36;2.60;99.90
19580;DHT22;9936;51.040;13.918;2023-03-29T04:58:22;2.70;99.90
19580;DHT22;9936;51.040;13.918;2023-03-29T05:02:08;2.60;99.90
19580;DHT22;9936;51.040;13.918;2023-03-29T05:05:54;2.60;99.90
19580;DHT22;9936;51.040;13.918;2023-03-29T05:09:40;2.60;99.90
19580;DHT22;9936;51.040;13.918;2023-03-29T05:13:26;2.60;99.90
19580;DHT22;9936;51.040;13.918;2023-03-29T05:17:11;2.60;99.90
19580;DHT22;9936;51.040;13.918;2023-03-29T05:20:57;2.60;99.90
19580;DHT22;9936;51.040;13.918;2023-03-29T05:24:43;2.50;99.90
19580;DHT22;9936;51.040;13.918;2023-03-29T05:28:29;2.60;99.90
19580;DHT22;9936;51.040;13.918;2023-03-29T05:32:15;2.60;99.90
19580;DHT22;9936;51.040;13.918;2023-03-29T05:36:03;2.60;99.90
19580;DHT22;9936;51.040;13.918;2023-03-29T05:39:49;2.60;99.90
19580;DHT22;9936;51.040;13.918;2023-03-29T05:43:34;2.60;99.90
19580;DHT22;9936;51.040;13.918;2023-03-29T05:47:20;2.70;99.90
19580;DHT22;9936;51.040;13.918;2023-03-29T05:51:06;2.70;99.90
19580;DHT22;9936;51.040;13.918;2023-03-29T05:54:52;2.60;99.90
19580;DHT22;9936;51.040;13.918;2023-03-29T05:58:38;2.60;99.90
19580;DHT22;9936;51.040;13.918;2023-03-29T06:02:23;2.60;99.90
19580;DHT22;9936;51.040;13.918;2023-03-29T06:06:10;2.60;99.90
19580;DHT22;9936;51.040;13.918;2023-03-29T06:09:56;2.80;99.90
19580;DHT22;9936;51.040;13.918;2023-03-29T06:13:41;2.70;99.90
19580;DHT22;9936;51.040;13.918;2023-03-29T06:17:27;2.60;99.90
19580;DHT22;9936;51.040;13.918;2023-03-29T06:21:13;2.70;99.90
19580;DHT22;9936;51.040;13.918;2023-03-29T06:24:59;2.70;99.90
19580;DHT22;9936;51.040;13.918;2023-03-29T06:28:45;2.60;99.90
19580;DHT22;9936;51.040;13.918;2023-03-29T06:32:33;2.70;99.90
19580;DHT22;9936;51.040;13.918;2023-03-29T06:36:19;2.60;99.90
19580;DHT22;9936;51.040;13.918;2023-03-29T06:40:05;2.70;99.90
19580;DHT22;9936;51.040;13.918;2023-03-29T06:43:51;2.80;99.90
19580;DHT22;9936;51.040;13.918;2023-03-29T06:47:38;2.80;99.90
19580;DHT22;9936;51.040;13.918;2023-03-29T06:51:25;2.80;99.90
19580;DHT22;9936;51.040;13.918;2023-03-29T06:55:11;2.70;99.90
19580;DHT22;9936;51.040;13.918;2023-03-29T06:58:57;2.80;99.90
19580;DHT22;9936;51.040;13.918;2023-03-29T07:02:44;2.90;99.90
19580;DHT22;9936;51.040;13.918;2023-03-29T07:06:30;2.80;99.90
19580;DHT22;9936;51.040;13.918;2023-03-29T07:10:16;2.80;99.90
19580;DHT22;9936;51.040;13.918;2023-03-29T07:14:01;2.70;99.90
19580;DHT22;9936;51.040;13.918;2023-03-29T07:17:48;2.80;99.90
19580;DHT22;9936;51.040;13.918;2023-03-29T07:21:33;2.70;99.90
19580;DHT22;9936;51.040;13.918;2023-03-29T07:25:21;2.60;99.90
19580;DHT22;9936;51.040;13.918;2023-03-29T07:29:06;2.80;99.90
19580;DHT22;9936;51.040;13.918;2023-03-29T07:32:53;2.80;99.90
19580;DHT22;9936;51.040;13.918;2023-03-29T07:36:40;2.80;99.90
19580;DHT22;9936;51.040;13.918;2023-03-29T07:40:28;2.70;99.90
19580;DHT22;9936;51.040;13.918;2023-03-29T07:44:13;2.70;99.90
19580;DHT22;9936;51.040;13.918;2023-03-29T07:47:59;2.70;99.90
19580;DHT22;9936;51.040;13.918;2023-03-29T07:51:45;2.70;99.90
19580;DHT22;9936;51.040;13.918;2023-03-29T07:55:31;2.70;99.90
19580;DHT22;9936;51.040;13.918;2023-03-29T07:59:17;2.70;99.90
19580;DHT22;9936;51.040;13.918;2023-03-29T08:03:02;2.70;99.90
19580;DHT22;9936;51.040;13.918;2023-03-29T08:06:48;2.70;99.90
19580;DHT22;9936;51.040;13.918;2023-03-29T08:10:36;2.70;99.90
19580;DHT22;9936;51.040;13.918;2023-03-29T08:14:22;2.70;99.90
19580;DHT22;9936;51.040;13.918;2023-03-29T08:18:08;2.80;99.90
19580;DHT22;9936;51.040;13.918;2023-03-29T08:21:53;2.70;99.90
19580;DHT22;9936;51.040;13.918;2023-03-29T08:25:39;2.80;99.90
19580;DHT22;9936;51.040;13.918;2023-03-29T08:29:24;2.80;99.90
19580;DHT22;9936;51.040;13.918;2023-03-29T08:33:11;2.80;99.90
19580;DHT22;9936;51.040;13.918;2023-03-29T08:36:57;2.70;99.90
19580;DHT22;9936;51.040;13.918;2023-03-29T08:40:46;2.80;99.90
19580;DHT22;9936;51.040;13.918;2023-03-29T08:48:55;2.90;99.90
19580;DHT22;9936;51.040;13.918;2023-03-29T08:52:50;2.90;99.90
19580;DHT22;9936;51.040;13.918;2023-03-29T08:56:37;3.00;99.90
19580;DHT22;9936;51.040;13.918;2023-03-29T09:00:32;3.00;99.90
19580;DHT22;9936;51.040;13.918;2023-03-29T09:04:22;3.10;99.90
19580;DHT22;9936;51.040;13.918;2023-03-29T09:08:15;3.10;99.90
19580;DHT22;9936;51.040;13.918;2023-03-29T09:28:12;3.30;99.90
19580;DHT22;9936;51.040;13.918;2023-03-29T09:32:00;3.30;99.90
19580;DHT22;9936;51.040;13.918;2023-03-29T09:35:55;3.40;99.90
19580;DHT22;9936;51.040;13.918;2023-03-29T09:39:41;3.50;99.90
19580;DHT22;9936;51.040;13.918;2023-03-29T09:43:33;3.40;99.90
19580;DHT22;9936;51.040;13.918;2023-03-29T09:47:27;3.50;99.90
19580;DHT22;9936;51.040;13.918;2023-03-29T09:51:14;3.50;99.90
19580;DHT22;9936;51.040;13.918;2023-03-29T09:55:01;3.50;99.90
19580;DHT22;9936;51.040;13.918;2023-03-29T09:58:48;3.50;99.90
19580;DHT22;9936;51.040;13.918;2023-03-29T10:02:34;3.50;99.90
19580;DHT22;9936;51.040;13.918;2023-03-29T10:06:22;3.60;99.90
19580;DHT22;9936;51.040;13.918;2023-03-29T10:10:10;3.60;99.90
19580;DHT22;9936;51.040;13.918;2023-03-29T10:14:18;3.70;99.90
19580;DHT22;9936;51.040;13.918;2023-03-29T10:18:06;3.80;99.90
19580;DHT22;9936;51.040;13.918;2023-03-29T10:21:59;3.80;99.90
19580;DHT22;9936;51.040;13.918;2023-03-29T10:25:45;4.00;99.90
19580;DHT22;9936;51.040;13.918;2023-03-29T10:29:40;4.00;99.90
19580;DHT22;9936;51.040;13.918;2023-03-29T10:33:32;4.10;99.90
19580;DHT22;9936;51.040;13.918;2023-03-29T10:37:19;4.10;99.90
19580;DHT22;9936;51.040;13.918;2023-03-29T10:41:09;4.20;99.90
19580;DHT22;9936;51.040;13.918;2023-03-29T10:44:57;4.30;99.90
19580;DHT22;9936;51.040;13.918;2023-03-29T10:49:04;4.30;99.90
19580;DHT22;9936;51.040;13.918;2023-03-29T10:52:54;4.30;99.90
19580;DHT22;9936;51.040;13.918;2023-03-29T10:56:40;4.40;99.90
19580;DHT22;9936;51.040;13.918;2023-03-29T11:00:56;4.40;99.90
19580;DHT22;9936;51.040;13.918;2023-03-29T11:04:59;4.40;99.90
19580;DHT22;9936;51.040;13.918;2023-03-29T11:08:58;4.40;99.90
19580;DHT22;9936;51.040;13.918;2023-03-29T11:17:14;4.50;99.90
19580;DHT22;9936;51.040;13.918;2023-03-29T11:45:14;4.80;99.90
19580;DHT22;9936;51.040;13.918;2023-03-29T11:53:26;5.10;99.90
19580;DHT22;9936;51.040;13.918;2023-03-29T12:01:24;5.40;99.90
19580;DHT22;9936;51.040;13.918;2023-03-29T12:05:26;5.50;99.90
19580;DHT22;9936;51.040;13.918;2023-03-29T12:09:36;5.50;99.90
19580;DHT22;9936;51.040;13.918;2023-03-29T12:13:29;5.60;99.90
19580;DHT22;9936;51.040;13.918;2023-03-29T12:17:18;5.60;99.90
19580;DHT22;9936;51.040;13.918;2023-03-29T12:21:11;5.60;99.90
19580;DHT22;9936;51.040;13.918;2023-03-29T12:24:59;5.70;99.90
19580;DHT22;9936;51.040;13.918;2023-03-29T12:29:01;5.80;99.90
19580;DHT22;9936;51.040;13.918;2023-03-29T12:33:13;5.90;99.90
19580;DHT22;9936;51.040;13.918;2023-03-29T12:37:15;6.00;99.90
19580;DHT22;9936;51.040;13.918;2023-03-29T12:41:15;6.10;99.90
19580;DHT22;9936;51.040;13.918;2023-03-29T12:45:03;6.10;99.90
19580;DHT22;9936;51.040;13.918;2023-03-29T12:48:59;6.20;99.90
19580;DHT22;9936;51.040;13.918;2023-03-29T12:52:50;6.30;99.90
19580;DHT22;9936;51.040;13.918;2023-03-29T12:56:41;6.40;99.90
19580;DHT22;9936;51.040;13.918;2023-03-29T13:04:39;6.60;99.90
19580;DHT22;9936;51.040;13.918;2023-03-29T13:08:41;6.70;99.90
19580;DHT22;9936;51.040;13.918;2023-03-29T13:12:35;6.80;99.90
19580;DHT22;9936;51.040;13.918;2023-03-29T13:16:32;6.80;99.90
19580;DHT22;9936;51.040;13.918;2023-03-29T13:28:45;6.80;99.90
19580;DHT22;9936;51.040;13.918;2023-03-29T13:37:30;6.90;99.90
19580;DHT22;9936;51.040;13.918;2023-03-29T13:45:28;7.00;99.90
19580;DHT22;9936;51.040;13.918;2023-03-29T13:49:25;7.00;99.90
19580;DHT22;9936;51.040;13.918;2023-03-29T13:53:19;7.10;99.90
19580;DHT22;9936;51.040;13.918;2023-03-29T14:01:14;7.10;99.90
19580;DHT22;9936;51.040;13.918;2023-03-29T14:05:01;7.20;99.90
19580;DHT22;9936;51.040;13.918;2023-03-29T14:08:50;7.30;99.90
19580;DHT22;9936;51.040;13.918;2023-03-29T14:12:37;7.30;99.90
19580;DHT22;9936;51.040;13.918;2023-03-29T14:16:28;7.40;99.90
19580;DHT22;9936;51.040;13.918;2023-03-29T14:20:15;7.40;99.90
19580;DHT22;9936;51.040;13.918;2023-03-29T14:24:01;7.50;99.90
19580;DHT22;9936;51.040;13.918;2023-03-29T14:27:47;7.50;99.90
19580;DHT22;9936;51.040;13.918;2023-03-29T14:31:36;7.50;99.90
19580;DHT22;9936;51.040;13.918;2023-03-29T14:35:28;7.50;99.90
19580;DHT22;9936;51.040;13.918;2023-03-29T14:39:17;7.50;99.90
19580;DHT22;9936;51.040;13.918;2023-03-29T14:43:06;7.60;99.90
19580;DHT22;9936;51.040;13.918;2023-03-29T14:46:53;7.60;99.90
19580;DHT22;9936;51.040;13.918;2023-03-29T14:50:39;7.60;99.90
19580;DHT22;9936;51.040;13.918;2023-03-29T14:54:31;7.60;99.90
19580;DHT22;9936;51.040;13.918;2023-03-29T14:58:27;7.70;99.90
19580;DHT22;9936;51.040;13.918;2023-03-29T15:02:28;7.70;99.90
19580;DHT22;9936;51.040;13.918;2023-03-29T15:06:15;7.70;99.90
19580;DHT22;9936;51.040;13.918;2023-03-29T15:10:01;7.70;99.90
19580;DHT22;9936;51.040;13.918;2023-03-29T15:13:50;7.80;99.90
19580;DHT22;9936;51.040;13.918;2023-03-29T15:17:42;7.80;99.90
19580;DHT22;9936;51.040;13.918;2023-03-29T15:21:32;8.10;99.90
19580;DHT22;9936;51.040;13.918;2023-03-29T15:25:20;8.40;99.90
19580;DHT22;9936;51.040;13.918;2023-03-29T15:29:12;8.80;99.90
19580;DHT22;9936;51.040;13.918;2023-03-29T15:33:19;9.00;99.90
19580;DHT22;9936;51.040;13.918;2023-03-29T15:37:04;9.20;99.90
19580;DHT22;9936;51.040;13.918;2023-03-29T15:40:51;9.30;99.90
19580;DHT22;9936;51.040;13.918;2023-03-29T15:44:37;9.40;99.90
19580;DHT22;9936;51.040;13.918;2023-03-29T15:48:26;9.40;99.90
19580;DHT22;9936;51.040;13.918;2023-03-29T15:52:12;9.40;99.90
19580;DHT22;9936;51.040;13.918;2023-03-29T15:56:04;9.40;99.90
19580;DHT22;9936;51.040;13.918;2023-03-29T15:59:52;9.50;99.90
19580;DHT22;9936;51.040;13.918;2023-03-29T16:03:39;9.50;99.90
19580;DHT22;9936;51.040;13.918;2023-03-29T16:07:28;9.50;99.90
19580;DHT22;9936;51.040;13.918;2023-03-29T16:11:21;9.40;99.90
19580;DHT22;9936;51.040;13.918;2023-03-29T16:15:13;9.40;99.90
19580;DHT22;9936;51.040;13.918;2023-03-29T16:19:01;9.30;99.90
19580;DHT22;9936;51.040;13.918;2023-03-29T16:22:47;9.30;99.90
19580;DHT22;9936;51.040;13.918;2023-03-29T16:26:33;9.30;99.90
19580;DHT22;9936;51.040;13.918;2023-03-29T16:30:19;9.30;99.90
19580;DHT22;9936;51.040;13.918;2023-03-29T16:34:04;9.30;99.90
19580;DHT22;9936;51.040;13.918;2023-03-29T16:37:50;9.30;99.90
19580;DHT22;9936;51.040;13.918;2023-03-29T16:41:36;9.20;99.90
19580;DHT22;9936;51.040;13.918;2023-03-29T16:45:21;9.20;99.90
19580;DHT22;9936;51.040;13.918;2023-03-29T16:49:11;9.20;99.90
19580;DHT22;9936;51.040;13.918;2023-03-29T16:52:58;9.10;99.90
19580;DHT22;9936;51.040;13.918;2023-03-29T16:56:43;9.00;99.90
19580;DHT22;9936;51.040;13.918;2023-03-29T17:00:29;9.00;99.90
19580;DHT22;9936;51.040;13.918;2023-03-29T17:04:19;9.00;99.90
19580;DHT22;9936;51.040;13.918;2023-03-29T17:08:05;8.90;99.90
19580;DHT22;9936;51.040;13.918;2023-03-29T17:11:51;8.90;99.90
19580;DHT22;9936;51.040;13.918;2023-03-29T17:15:37;8.90;99.90
19580;DHT22;9936;51.040;13.918;2023-03-29T17:19:23;8.80;99.90
19580;DHT22;9936;51.040;13.918;2023-03-29T17:23:09;8.80;99.90
19580;DHT22;9936;51.040;13.918;2023-03-29T17:26:55;8.70;99.90
19580;DHT22;9936;51.040;13.918;2023-03-29T17:30:43;8.70;99.90
19580;DHT22;9936;51.040;13.918;2023-03-29T17:34:30;8.70;99.90
19580;DHT22;9936;51.040;13.918;2023-03-29T17:38:17;8.70;99.90
19580;DHT22;9936;51.040;13.918;2023-03-29T17:42:04;8.70;99.90
19580;DHT22;9936;51.040;13.918;2023-03-29T17:45:52;8.70;99.90
19580;DHT22;9936;51.040;13.918;2023-03-29T17:49:38;8.60;99.90
19580;DHT22;9936;51.040;13.918;2023-03-29T17:53:24;8.50;99.90
19580;DHT22;9936;51.040;13.918;2023-03-29T17:57:11;8.60;99.90
19580;DHT22;9936;51.040;13.918;2023-03-29T18:00:57;8.60;99.90
19580;DHT22;9936;51.040;13.918;2023-03-29T18:04:43;8.50;99.90
19580;DHT22;9936;51.040;13.918;2023-03-29T18:08:30;8.50;99.90
19580;DHT22;9936;51.040;13.918;2023-03-29T18:12:16;8.50;99.90
19580;DHT22;9936;51.040;13.918;2023-03-29T18:16:04;8.50;99.90
19580;DHT22;9936;51.040;13.918;2023-03-29T18:19:52;8.40;99.90
19580;DHT22;9936;51.040;13.918;2023-03-29T18:23:38;8.40;99.90
19580;DHT22;9936;51.040;13.918;2023-03-29T18:27:25;8.40;99.90
19580;DHT22;9936;51.040;13.918;2023-03-29T18:31:12;8.30;99.90
19580;DHT22;9936;51.040;13.918;2023-03-29T18:34:57;8.30;99.90
19580;DHT22;9936;51.040;13.918;2023-03-29T18:38:43;8.30;99.90
19580;DHT22;9936;51.040;13.918;2023-03-29T18:42:29;8.30;99.90
19580;DHT22;9936;51.040;13.918;2023-03-29T18:46:15;8.20;99.90
19580;DHT22;9936;51.040;13.918;2023-03-29T18:50:00;8.20;99.90
19580;DHT22;9936;51.040;13.918;2023-03-29T18:53:47;8.20;99.90
19580;DHT22;9936;51.040;13.918;2023-03-29T18:57:32;8.20;99.90
19580;DHT22;9936;51.040;13.918;2023-03-29T19:01:18;8.20;99.90
19580;DHT22;9936;51.040;13.918;2023-03-29T19:05:04;8.20;99.90
19580;DHT22;9936;51.040;13.918;2023-03-29T19:08:50;8.20;99.90
19580;DHT22;9936;51.040;13.918;2023-03-29T19:12:38;8.10;99.90
19580;DHT22;9936;51.040;13.918;2023-03-29T19:16:23;8.10;99.90
19580;DHT22;9936;51.040;13.918;2023-03-29T19:20:10;8.10;99.90
19580;DHT22;9936;51.040;13.918;2023-03-29T19:23:57;8.00;99.90
19580;DHT22;9936;51.040;13.918;2023-03-29T19:27:45;8.00;99.90
19580;DHT22;9936;51.040;13.918;2023-03-29T19:31:32;8.00;99.90
19580;DHT22;9936;51.040;13.918;2023-03-29T19:35:19;8.00;99.90
19580;DHT22;9936;51.040;13.918;2023-03-29T19:39:05;8.00;99.90
19580;DHT22;9936;51.040;13.918;2023-03-29T19:42:51;8.00;99.90
19580;DHT22;9936;51.040;13.918;2023-03-29T19:46:37;8.00;99.90
19580;DHT22;9936;51.040;13.918;2023-03-29T19:50:23;8.00;99.90
19580;DHT22;9936;51.040;13.918;2023-03-29T19:54:11;8.00;99.90
19580;DHT22;9936;51.040;13.918;2023-03-29T19:57:58;8.00;99.90
19580;DHT22;9936;51.040;13.918;2023-03-29T20:01:45;7.90;99.90
19580;DHT22;9936;51.040;13.918;2023-03-29T20:05:36;7.90;99.90
19580;DHT22;9936;51.040;13.918;2023-03-29T20:09:22;7.90;99.90
19580;DHT22;9936;51.040;13.918;2023-03-29T20:13:08;7.90;99.90
19580;DHT22;9936;51.040;13.918;2023-03-29T20:16:54;7.80;99.90
19580;DHT22;9936;51.040;13.918;2023-03-29T20:20:39;7.70;99.90
19580;DHT22;9936;51.040;13.918;2023-03-29T20:24:25;7.70;99.90
19580;DHT22;9936;51.040;13.918;2023-03-29T20:28:11;7.90;99.90
19580;DHT22;9936;51.040;13.918;2023-03-29T20:31:57;7.80;99.90
19580;DHT22;9936;51.040;13.918;2023-03-29T20:35:44;7.70;99.90
19580;DHT22;9936;51.040;13.918;2023-03-29T20:39:30;7.70;99.90
19580;DHT22;9936;51.040;13.918;2023-03-29T20:43:16;7.70;99.90
19580;DHT22;9936;51.040;13.918;2023-03-29T20:47:04;7.70;99.90
19580;DHT22;9936;51.040;13.918;2023-03-29T20:50:52;7.70;99.90
19580;DHT22;9936;51.040;13.918;2023-03-29T20:54:38;7.70;99.90
19580;DHT22;9936;51.040;13.918;2023-03-29T20:58:24;7.70;99.90
19580;DHT22;9936;51.040;13.918;2023-03-29T21:02:13;7.70;99.90
19580;DHT22;9936;51.040;13.918;2023-03-29T21:06:00;7.70;99.90
19580;DHT22;9936;51.040;13.918;2023-03-29T21:09:49;7.70;99.90
19580;DHT22;9936;51.040;13.918;2023-03-29T21:13:34;7.70;99.90
19580;DHT22;9936;51.040;13.918;2023-03-29T21:17:20;7.80;99.90
19580;DHT22;9936;51.040;13.918;2023-03-29T21:21:07;7.60;99.90
19580;DHT22;9936;51.040;13.918;2023-03-29T21:24:52;7.60;99.90
19580;DHT22;9936;51.040;13.918;2023-03-29T21:28:38;7.60;99.90
19580;DHT22;9936;51.040;13.918;2023-03-29T21:32:25;7.60;99.90
19580;DHT22;9936;51.040;13.918;2023-03-29T21:36:11;7.60;99.90
19580;DHT22;9936;51.040;13.918;2023-03-29T21:39:56;7.60;99.90
19580;DHT22;9936;51.040;13.918;2023-03-29T21:43:42;7.60;99.90
19580;DHT22;9936;51.040;13.918;2023-03-29T21:47:28;7.60;99.90
19580;DHT22;9936;51.040;13.918;2023-03-29T21:51:14;7.60;99.90
19580;DHT22;9936;51.040;13.918;2023-03-29T21:54:59;7.60;99.90
19580;DHT22;9936;51.040;13.918;2023-03-29T21:58:45;7.60;99.90
19580;DHT22;9936;51.040;13.918;2023-03-29T22:02:30;7.60;99.90
19580;DHT22;9936;51.040;13.918;2023-03-29T22:06:16;7.50;99.90
19580;DHT22;9936;51.040;13.918;2023-03-29T22:10:02;7.60;99.90
19580;DHT22;9936;51.040;13.918;2023-03-29T22:13:50;7.50;99.90
19580;DHT22;9936;51.040;13.918;2023-03-29T22:17:36;7.50;99.90
19580;DHT22;9936;51.040;13.918;2023-03-29T22:21:24;7.50;99.90
19580;DHT22;9936;51.040;13.918;2023-03-29T22:25:11;7.50;99.90
19580;DHT22;9936;51.040;13.918;2023-03-29T22:28:58;7.50;99.90
19580;DHT22;9936;51.040;13.918;2023-03-29T22:32:44;7.50;99.90
19580;DHT22;9936;51.040;13.918;2023-03-29T22:36:30;7.50;99.90
19580;DHT22;9936;51.040;13.918;2023-03-29T22:40:16;7.40;99.90
19580;DHT22;9936;51.040;13.918;2023-03-29T22:44:02;7.40;99.90
19580;DHT22;9936;51.040;13.918;2023-03-29T22:47:48;7.40;99.90
19580;DHT22;9936;51.040;13.918;2023-03-29T22:51:33;7.40;99.90
19580;DHT22;9936;51.040;13.918;2023-03-29T22:55:19;7.40;99.90
19580;DHT22;9936;51.040;13.918;2023-03-29T22:59:05;7.40;99.90
19580;DHT22;9936;51.040;13.918;2023-03-29T23:02:50;7.40;99.90
19580;DHT22;9936;51.040;13.918;2023-03-29T23:06:36;7.30;99.90
19580;DHT22;9936;51.040;13.918;2023-03-29T23:10:22;7.40;99.90
19580;DHT22;9936;51.040;13.918;2023-03-29T23:14:13;7.30;99.90
19580;DHT22;9936;51.040;13.918;2023-03-29T23:17:59;7.50;99.90
19580;DHT22;9936;51.040;13.918;2023-03-29T23:21:46;7.40;99.90
19580;DHT22;9936;51.040;13.918;2023-03-29T23:25:32;7.30;99.90
19580;DHT22;9936;51.040;13.918;2023-03-29T23:29:17;7.30;99.90
19580;DHT22;9936;51.040;13.918;2023-03-29T23:33:04;7.40;99.90
19580;DHT22;9936;51.040;13.918;2023-03-29T23:36:50;7.40;99.90
19580;DHT22;9936;51.040;13.918;2023-03-29T23:40:36;7.40;99.90
19580;DHT22;9936;51.040;13.918;2023-03-29T23:44:21;7.40;99.90
19580;DHT22;9936;51.040;13.918;2023-03-29T23:48:07;7.40;99.90
19580;DHT22;9936;51.040;13.918;2023-03-29T23:51:53;7.40;99.90
19580;DHT22;9936;51.040;13.918;2023-03-29T23:55:40;7.40;99.90
19580;DHT22;9936;51.040;13.918;2023-03-29T23:59:26;7.40;99.90
